createdAt,value
2023-03-11T00:02:33.013Z,1.33
2023-03-11T00:06:42.199Z,1.33
2023-03-11T00:10:59.082Z,1.73
2023-03-11T00:15:10.073Z,1.57
2023-03-11T00:19:20.814Z,1.70
2023-03-11T00:23:30.318Z,2.00
2023-03-11T00:27:39.734Z,1.83
2023-03-11T00:31:48.745Z,1.90
2023-03-11T00:35:59.472Z,2.00
2023-03-11T00:40:11.211Z,2.03
2023-03-11T00:44:20.304Z,1.90
2023-03-11T00:48:29.305Z,1.93
2023-03-11T00:52:39.844Z,2.30
2023-03-11T00:56:48.963Z,2.10
2023-03-11T01:00:58.209Z,2.20
2023-03-11T01:05:08.200Z,2.00
2023-03-11T01:09:18.899Z,2.13
2023-03-11T01:13:29.709Z,2.43
2023-03-11T01:17:38.760Z,2.47
2023-03-11T01:21:48.036Z,2.70
2023-03-11T01:25:58.611Z,2.10
2023-03-11T01:30:08.898Z,2.63
2023-03-11T01:34:18.247Z,1.97
2023-03-11T01:38:27.364Z,2.20
2023-03-11T01:42:37.992Z,2.33
2023-03-11T01:47:24.322Z,2.50
2023-03-11T01:51:37.590Z,2.10
2023-03-11T01:55:49.880Z,2.00
2023-03-11T02:00:06.228Z,2.30
2023-03-11T02:04:16.856Z,2.40
2023-03-11T02:08:26.248Z,1.90
2023-03-11T02:12:38.512Z,2.07
2023-03-11T02:16:49.212Z,3.23
2023-03-11T02:21:08.899Z,3.27
2023-03-11T02:25:28.706Z,2.20
2023-03-11T02:29:40.251Z,4.30
2023-03-11T02:33:52.550Z,3.37
2023-03-11T02:38:01.755Z,3.03
2023-03-11T02:42:15.099Z,3.33
2023-03-11T02:46:25.925Z,4.00
2023-03-11T02:50:37.524Z,2.83
2023-03-11T02:54:46.528Z,3.00
2023-03-11T02:58:55.595Z,2.97
2023-03-11T03:03:06.643Z,3.70
2023-03-11T03:07:15.739Z,3.00
2023-03-11T03:11:25.772Z,3.17
2023-03-11T03:15:34.955Z,2.70
2023-03-11T03:19:45.719Z,2.90
2023-03-11T03:23:54.858Z,2.97
2023-03-11T03:28:05.173Z,2.97
2023-03-11T03:32:14.384Z,2.70
2023-03-11T03:36:25.082Z,3.30
2023-03-11T03:40:34.195Z,3.13
2023-03-11T03:44:43.380Z,3.67
2023-03-11T03:48:52.509Z,3.60
2023-03-11T03:53:03.108Z,3.20
2023-03-11T03:57:12.283Z,3.70
2023-03-11T04:01:21.562Z,2.90
2023-03-11T04:05:30.665Z,3.40
2023-03-11T04:09:43.558Z,3.90
2023-03-11T04:13:52.864Z,3.43
2023-03-11T04:18:02.039Z,3.03
2023-03-11T04:22:11.165Z,2.77
2023-03-11T04:26:21.798Z,2.93
2023-03-11T04:30:30.942Z,3.10
2023-03-11T04:34:40.217Z,3.20
2023-03-11T04:38:49.368Z,2.50
2023-03-11T04:42:59.932Z,2.23
2023-03-11T04:47:09.026Z,2.50
2023-03-11T04:51:18.317Z,2.60
2023-03-11T04:55:27.618Z,2.13
2023-03-11T04:59:38.712Z,2.33
2023-03-11T05:03:48.994Z,2.00
2023-03-11T05:07:58.222Z,1.73
2023-03-11T05:12:08.050Z,2.13
2023-03-11T05:16:18.769Z,2.00
2023-03-11T05:20:27.988Z,2.20
2023-03-11T05:24:37.337Z,2.00
2023-03-11T05:28:46.818Z,2.13
2023-03-11T05:32:58.195Z,2.50
2023-03-11T05:37:08.009Z,1.90
2023-03-11T05:41:17.262Z,2.30
2023-03-11T05:45:26.775Z,2.50
2023-03-11T05:49:37.624Z,2.23
2023-03-11T05:53:48.784Z,2.50
2023-03-11T05:57:58.308Z,2.73
2023-03-11T06:02:07.638Z,2.50
2023-03-11T06:06:18.529Z,2.50
2023-03-11T06:10:27.750Z,2.80
2023-03-11T06:14:38.954Z,3.47
2023-03-11T06:18:48.114Z,3.37
2023-03-11T06:22:59.079Z,3.70
2023-03-11T06:27:15.965Z,3.70
2023-03-11T06:31:27.564Z,3.73
2023-03-11T06:35:37.852Z,3.70
2023-03-11T06:39:48.738Z,3.70
2023-03-11T06:44:00.989Z,3.47
2023-03-11T06:48:10.299Z,4.10
2023-03-11T06:52:19.779Z,3.07
2023-03-11T06:56:30.444Z,3.40
2023-03-11T07:00:41.701Z,4.20
2023-03-11T07:04:52.169Z,5.70
2023-03-11T07:09:06.397Z,11.37
2023-03-11T07:13:18.078Z,24.23
2023-03-11T07:17:28.182Z,19.23
2023-03-11T07:26:11.714Z,31.97
2023-03-11T07:30:53.017Z,39.17
2023-03-11T07:35:02.659Z,40.40
2023-03-11T07:39:17.770Z,32.77
2023-03-11T07:43:33.240Z,30.93
2023-03-11T07:52:48.948Z,23.13
2023-03-11T08:01:57.388Z,26.93
2023-03-11T08:15:39.357Z,23.63
2023-03-11T08:19:59.942Z,28.50
2023-03-11T08:24:09.682Z,23.97
2023-03-11T08:28:18.663Z,21.90
2023-03-11T08:32:31.959Z,23.80
2023-03-11T08:36:41.152Z,18.40
2023-03-11T08:40:50.216Z,24.53
2023-03-11T08:44:59.366Z,26.37
2023-03-11T08:49:10.313Z,32.20
2023-03-11T08:53:19.351Z,30.57
2023-03-11T08:57:28.575Z,31.70
2023-03-11T09:01:37.690Z,30.60
2023-03-11T09:05:48.352Z,30.07
2023-03-11T09:09:57.866Z,31.43
2023-03-11T09:14:07.142Z,19.83
2023-03-11T09:18:17.045Z,18.23
2023-03-11T09:22:27.839Z,27.13
2023-03-11T09:26:37.022Z,30.43
2023-03-11T09:30:46.082Z,27.80
2023-03-11T09:34:55.138Z,33.60
2023-03-11T09:39:05.894Z,34.00
2023-03-11T09:43:25.583Z,33.07
2023-03-11T09:47:56.076Z,27.40
2023-03-11T09:52:12.610Z,27.10
2023-03-11T09:56:24.907Z,30.00
2023-03-11T10:00:34.318Z,24.60
2023-03-11T10:04:48.654Z,30.33
2023-03-11T10:09:04.699Z,31.50
2023-03-11T10:13:23.816Z,40.17
2023-03-11T10:17:53.825Z,29.73
2023-03-11T10:22:14.285Z,33.53
2023-03-11T10:26:31.736Z,33.97
2023-03-11T10:30:45.270Z,31.77
2023-03-11T10:35:00.616Z,36.87
2023-03-11T10:39:13.194Z,41.60
2023-03-11T10:43:29.145Z,35.13
2023-03-11T10:47:39.834Z,36.47
2023-03-11T10:51:50.474Z,44.03
2023-03-11T10:56:01.956Z,45.03
2023-03-11T11:00:29.797Z,49.13
2023-03-11T11:04:42.453Z,54.33
2023-03-11T11:08:52.352Z,53.93
2023-03-11T11:13:03.075Z,61.87
2023-03-11T11:17:25.050Z,62.53
2023-03-11T11:21:38.642Z,55.87
2023-03-11T11:25:59.721Z,55.87
2023-03-11T11:30:19.248Z,63.10
2023-03-11T11:34:33.258Z,52.03
2023-03-11T11:38:44.317Z,44.60
2023-03-11T11:42:56.791Z,34.07
2023-03-11T11:47:15.563Z,35.10
2023-03-11T11:51:30.226Z,40.07
2023-03-11T11:55:45.786Z,39.00
2023-03-11T11:59:57.093Z,50.50
2023-03-11T12:04:48.342Z,53.27
2023-03-11T12:09:05.987Z,47.13
2023-03-11T12:13:49.132Z,53.80
2023-03-11T12:18:05.548Z,48.03
2023-03-11T12:22:55.791Z,50.73
2023-03-11T12:27:08.304Z,45.77
2023-03-11T12:31:19.399Z,56.63
2023-03-11T12:35:30.587Z,56.90
2023-03-11T12:39:39.731Z,45.53
2023-03-11T12:44:06.904Z,46.73
2023-03-11T12:48:46.370Z,61.70
2023-03-11T12:52:56.381Z,61.03
2023-03-11T12:57:10.884Z,50.73
2023-03-11T13:01:43.179Z,51.73
2023-03-11T13:06:07.212Z,47.57
2023-03-11T13:10:38.769Z,39.20
2023-03-11T13:14:47.766Z,41.90
2023-03-11T13:19:17.202Z,47.60
2023-03-11T13:23:31.331Z,59.03
2023-03-11T13:27:44.807Z,59.80
2023-03-11T13:32:26.736Z,62.30
2023-03-11T13:37:12.651Z,53.93
2023-03-11T13:41:29.586Z,59.77
2023-03-11T13:45:40.563Z,57.77
2023-03-11T13:49:57.098Z,53.20
2023-03-11T13:54:12.365Z,59.87
2023-03-11T13:58:25.497Z,55.43
2023-03-11T14:02:34.661Z,57.00
2023-03-11T14:06:44.310Z,53.30
2023-03-11T14:10:58.097Z,48.43
2023-03-11T14:15:11.112Z,55.63
2023-03-11T14:19:20.881Z,59.80
2023-03-11T14:23:32.887Z,64.90
2023-03-11T14:27:55.209Z,59.53
2023-03-11T14:32:18.332Z,53.10
2023-03-11T14:36:27.316Z,53.83
2023-03-11T14:40:39.136Z,64.83
2023-03-11T14:44:52.480Z,56.83
2023-03-11T14:49:05.959Z,59.03
2023-03-11T14:53:19.702Z,52.57
2023-03-11T14:57:36.363Z,49.93
2023-03-11T15:01:48.311Z,56.67
2023-03-11T15:06:03.447Z,52.93
2023-03-11T15:10:15.073Z,60.20
2023-03-11T15:14:27.214Z,54.27
2023-03-11T15:18:38.131Z,61.10
2023-03-11T15:22:57.728Z,54.77
2023-03-11T15:27:08.840Z,57.37
2023-03-11T15:31:31.503Z,60.23
2023-03-11T15:35:48.872Z,56.67
2023-03-11T15:40:13.293Z,60.47
2023-03-11T15:44:29.807Z,56.80
2023-03-11T15:48:38.868Z,53.30
2023-03-11T15:52:48.680Z,48.13
2023-03-11T15:57:01.651Z,61.67
2023-03-11T16:01:11.827Z,64.73
2023-03-11T16:05:23.381Z,53.60
2023-03-11T16:09:34.482Z,58.87
2023-03-11T16:13:45.084Z,59.40
2023-03-11T16:17:54.969Z,58.67
2023-03-11T16:22:04.656Z,55.37
2023-03-11T16:26:16.731Z,50.07
2023-03-11T16:30:32.544Z,57.47
2023-03-11T16:34:42.040Z,48.37
2023-03-11T16:38:52.050Z,53.00
2023-03-11T16:43:03.774Z,46.87
2023-03-11T16:47:14.410Z,57.10
2023-03-11T16:51:23.581Z,50.27
2023-03-11T16:55:32.814Z,45.43
2023-03-11T16:59:41.981Z,57.50
2023-03-11T17:03:53.267Z,49.57
2023-03-11T17:08:04.551Z,53.30
2023-03-11T17:12:16.012Z,48.50
2023-03-11T17:16:25.112Z,50.50
2023-03-11T17:20:37.454Z,52.23
2023-03-11T17:24:46.586Z,42.47
2023-03-11T17:28:56.442Z,62.00
2023-03-11T17:33:05.703Z,49.90
2023-03-11T17:37:16.481Z,90.03
2023-03-11T17:41:25.693Z,64.80
2023-03-11T17:45:34.767Z,95.03
2023-03-11T17:49:43.902Z,57.23
2023-03-11T17:53:56.068Z,50.77
2023-03-11T17:58:05.191Z,39.77
2023-03-11T18:02:15.671Z,58.77
2023-03-11T18:06:24.811Z,107.47
2023-03-11T18:10:35.390Z,72.63
2023-03-11T18:14:44.370Z,43.70
2023-03-11T18:18:55.266Z,51.90
2023-03-11T18:23:04.356Z,46.43
2023-03-11T18:27:14.902Z,43.77
2023-03-11T18:31:26.255Z,57.80
2023-03-11T18:35:35.488Z,46.83
2023-03-11T18:39:44.482Z,51.67
2023-03-11T18:43:57.701Z,50.67
2023-03-11T18:48:07.426Z,47.80
2023-03-11T18:52:16.378Z,47.90
2023-03-11T18:56:25.359Z,42.87
2023-03-11T19:00:36.211Z,47.10
2023-03-11T19:04:45.698Z,46.53
2023-03-11T19:08:55.271Z,55.17
2023-03-11T19:13:04.737Z,44.13
2023-03-11T19:17:16.846Z,40.13
2023-03-11T19:21:26.541Z,37.80
2023-03-11T19:25:36.323Z,43.87
2023-03-11T19:29:45.402Z,49.90
2023-03-11T19:33:56.082Z,40.97
2023-03-11T19:38:05.241Z,45.87
2023-03-11T19:42:14.224Z,46.77
2023-03-11T19:46:24.778Z,38.27
2023-03-11T19:50:35.470Z,60.30
2023-03-11T19:54:44.577Z,42.00
2023-03-11T19:58:53.761Z,37.70
2023-03-11T20:03:03.301Z,39.30
2023-03-11T20:07:13.822Z,38.90
2023-03-11T20:11:23.360Z,42.07
2023-03-11T20:15:33.567Z,37.03
2023-03-11T20:19:42.820Z,35.50
2023-03-11T20:23:55.918Z,37.23
2023-03-11T20:28:05.142Z,39.60
2023-03-11T20:32:14.298Z,46.47
2023-03-11T20:36:25.135Z,36.67
2023-03-11T20:40:35.737Z,39.67
2023-03-11T20:44:44.890Z,38.33
2023-03-11T20:48:53.988Z,38.70
2023-03-11T20:53:03.031Z,36.67
2023-03-11T20:57:13.634Z,42.70
2023-03-11T21:01:24.757Z,41.23
2023-03-11T21:05:38.336Z,46.67
2023-03-11T21:09:48.464Z,41.57
2023-03-11T21:13:59.233Z,37.17
2023-03-11T21:18:08.913Z,36.37
2023-03-11T21:22:17.935Z,36.50
2023-03-11T21:26:27.144Z,39.93
2023-03-11T21:30:37.922Z,32.27
2023-03-11T21:34:46.902Z,35.17
2023-03-11T21:38:55.913Z,34.40
2023-03-11T21:43:05.030Z,42.03
2023-03-11T21:47:16.613Z,36.67
2023-03-11T21:51:26.959Z,36.77
2023-03-11T21:55:36.609Z,36.30
2023-03-11T21:59:45.767Z,35.90
2023-03-11T22:03:56.849Z,37.63
2023-03-11T22:08:06.213Z,44.50
2023-03-11T22:12:15.675Z,33.10
2023-03-11T22:16:25.844Z,32.53
2023-03-11T22:20:36.650Z,37.37
2023-03-11T22:24:45.833Z,36.17
2023-03-11T22:28:54.801Z,32.13
2023-03-11T22:33:03.775Z,38.83
2023-03-11T22:37:14.276Z,31.47
2023-03-11T22:41:23.355Z,41.50
2023-03-11T22:45:32.400Z,37.23
2023-03-11T22:49:41.523Z,37.53
2023-03-11T22:53:52.087Z,35.97
2023-03-11T22:58:01.323Z,40.57
2023-03-11T23:02:10.509Z,44.00
2023-03-11T23:06:21.420Z,41.83
2023-03-11T23:10:31.948Z,39.27
2023-03-11T23:14:44.938Z,42.17
2023-03-11T23:18:56.305Z,40.23
2023-03-11T23:23:05.534Z,38.07
2023-03-11T23:27:16.252Z,39.67
2023-03-11T23:31:27.170Z,30.87
2023-03-11T23:35:36.258Z,30.77
2023-03-11T23:39:45.208Z,38.17
2023-03-11T23:43:55.716Z,45.63
2023-03-11T23:48:04.822Z,39.30
2023-03-11T23:52:13.961Z,33.23
2023-03-11T23:56:23.051Z,33.47
